Time;durP1;ratioP1;P1;durP2;ratioP2;P2;SDS_P1;SDS_P2;PMS_P1;PMS_P2;Temp;Humidity;BMP_temperature;BMP_pressure;BME280_temperature;BME280_humidity;BME280_pressure;Samples;Min_cycle;Max_cycle;Signal;HPM_P1;HPM_P2
2023/03/17 00:00:57;;;;;;;6.27;2.30;;;-0.80;94.10;0.20;97399.00;;;;5011224;28;20435;-68
2023/03/17 00:03:48;;;;;;;1.87;1.53;;;-0.50;94.20;0.30;97398.00;;;;5000404;28;20430;-69
2023/03/17 00:06:39;;;;;;;1.90;1.77;;;-0.80;94.50;0.40;97399.00;;;;4980685;28;20843;-69
2023/03/17 00:09:28;;;;;;;2.50;2.00;;;-0.90;94.20;-0.10;97402.00;;;;4994165;28;20429;-69
2023/03/17 00:12:18;;;;;;;3.30;2.37;;;-0.90;94.30;-0.60;97391.00;;;;4992995;28;20437;-69
2023/03/17 00:15:10;;;;;;;2.00;1.90;;;-0.70;94.60;-0.40;97392.00;;;;5000772;28;21231;-69
2023/03/17 00:17:59;;;;;;;2.13;1.40;;;-1.20;94.80;-0.30;97387.00;;;;4999690;28;20471;-69
2023/03/17 00:20:48;;;;;;;1.70;1.60;;;-1.30;95.10;-0.40;97393.00;;;;4997585;28;20520;-68
2023/03/17 00:23:37;;;;;;;4.23;1.53;;;-1.30;95.30;-0.30;97381.00;;;;4999574;28;20487;-69
2023/03/17 00:26:26;;;;;;;1.50;1.40;;;-1.00;96.00;-0.40;97392.00;;;;4995249;28;20437;-70
2023/03/17 00:29:15;;;;;;;3.47;1.80;;;-1.40;97.90;-0.50;97380.00;;;;5000858;28;20428;-69
2023/03/17 00:32:05;;;;;;;5.10;2.23;;;-1.10;99.90;-0.40;97384.00;;;;4998181;28;20422;-69
2023/03/17 00:34:55;;;;;;;2.33;2.13;;;-1.20;99.90;-0.80;97380.00;;;;4999044;28;20429;-69
2023/03/17 00:37:44;;;;;;;1.77;1.67;;;-1.30;99.90;-1.30;97369.00;;;;4989687;28;20488;-69
2023/03/17 00:40:33;;;;;;;3.30;1.80;;;-1.40;99.90;-0.80;97370.00;;;;4995877;28;20961;-68
2023/03/17 00:43:22;;;;;;;5.27;1.67;;;;;-1.10;97369.00;;;;5002647;28;20514;-69
2023/03/17 00:46:15;;;;;;;5.40;1.90;;;-1.50;99.90;-0.80;97360.00;;;;4995397;28;20453;-68
2023/03/17 00:49:15;;;;;;;2.20;1.50;;;-1.90;95.80;-0.50;97359.00;;;;4994974;28;20435;-69
2023/03/17 00:52:03;;;;;;;2.67;1.90;;;-1.60;96.70;-0.80;97351.00;;;;4988018;28;20961;-68
2023/03/17 00:54:52;;;;;;;4.20;2.17;;;-1.70;95.30;-1.10;97343.00;;;;5000459;28;20491;-68
2023/03/17 00:57:41;;;;;;;2.47;1.70;;;-1.60;95.10;-1.20;97341.00;;;;4999613;28;20429;-68
2023/03/17 01:00:31;;;;;;;2.17;1.63;;;-1.50;96.90;-1.40;97344.00;;;;4995413;28;20846;-68
2023/03/17 01:03:20;;;;;;;3.47;1.80;;;-1.70;96.90;-1.70;97328.00;;;;4987117;28;20975;-69
2023/03/17 01:06:13;;;;;;;2.27;1.83;;;-2.00;97.30;-1.50;97332.00;;;;4991371;28;20502;-69
2023/03/17 01:09:02;;;;;;;4.07;2.10;;;-1.90;98.50;-1.00;97338.00;;;;5001526;28;20442;-68
2023/03/17 01:11:51;;;;;;;1.77;1.40;;;-2.00;97.10;-1.20;97327.00;;;;4992207;28;20592;-69
2023/03/17 01:14:40;;;;;;;2.67;2.47;;;-1.80;96.30;-0.80;97329.00;;;;4997008;28;20953;-69
2023/03/17 01:17:29;;;;;;;2.10;1.60;;;-1.80;96.20;-0.60;97317.00;;;;5002888;28;20454;-69
2023/03/17 01:20:21;;;;;;;1.90;1.57;;;-1.70;93.60;-0.50;97329.00;;;;4995094;28;20441;-69
2023/03/17 01:23:12;;;;;;;4.03;1.80;;;-1.70;94.70;-0.60;97325.00;;;;4993407;28;20436;-69
2023/03/17 01:26:01;;;;;;;3.00;2.23;;;-1.80;95.90;-0.70;97321.00;;;;4984418;28;20468;-68
2023/03/17 01:28:49;;;;;;;3.37;1.73;;;-1.80;96.00;-0.70;97312.00;;;;4991720;28;20468;-68
2023/03/17 01:31:38;;;;;;;2.07;1.87;;;-1.80;96.00;-0.50;97321.00;;;;4998698;28;20429;-69
2023/03/17 01:34:27;;;;;;;1.60;1.50;;;-1.70;96.00;-0.70;97319.00;;;;4995374;28;20426;-69
2023/03/17 01:37:15;;;;;;;5.73;2.60;;;-1.80;96.00;-0.80;97306.00;;;;4989986;28;20439;-68
2023/03/17 01:40:08;;;;;;;1.53;1.47;;;-1.90;94.70;-1.40;97296.00;;;;4998944;28;20568;-68
2023/03/17 01:43:04;;;;;;;2.37;2.17;;;-1.60;94.80;-1.50;97303.00;;;;4999637;28;20433;-68
2023/03/17 01:46:26;;;;;;;5.20;3.00;;;-2.00;94.80;-1.40;97299.00;;;;4991385;28;20499;-70
2023/03/17 01:49:24;;;;;;;4.87;2.47;;;-2.00;95.20;-0.90;97307.00;;;;5005946;28;20458;-71
2023/03/17 01:52:16;;;;;;;2.03;1.83;;;-2.00;95.20;-0.90;97302.00;;;;4982054;28;20423;-70
2023/03/17 01:55:10;;;;;;;3.13;1.70;;;-2.10;95.30;-1.20;97299.00;;;;4997044;28;20427;-70
2023/03/17 01:57:59;;;;;;;4.40;2.37;;;-1.80;95.70;-1.30;97287.00;;;;4992467;28;20574;-70
2023/03/17 02:00:48;;;;;;;4.67;1.40;;;-2.00;96.00;-1.50;97286.00;;;;4994288;28;20417;-72
2023/03/17 02:03:37;;;;;;;2.40;2.17;;;-2.20;96.00;-1.50;97286.00;;;;4996782;28;20421;-70
2023/03/17 02:06:27;;;;;;;2.03;1.80;;;-2.30;96.60;-1.10;97287.00;;;;4996823;28;20435;-71
2023/03/17 02:09:16;;;;;;;3.30;2.30;;;-2.30;96.90;-0.90;97278.00;;;;4999593;28;20425;-70
2023/03/17 02:12:08;;;;;;;2.23;2.03;;;-2.10;96.80;-0.70;97282.00;;;;4996585;28;20427;-71
2023/03/17 02:14:58;;;;;;;3.50;2.13;;;-1.70;97.60;-0.80;97285.00;;;;4998453;28;20441;-70
2023/03/17 02:17:47;;;;;;;2.03;1.90;;;-2.00;98.00;-1.30;97280.00;;;;4999025;28;20443;-70
2023/03/17 02:21:39;;;;;;;3.87;1.57;;;-1.50;98.40;-1.40;97271.00;;;;4988398;28;20502;-71
2023/03/17 02:24:35;;;;;;;3.40;1.93;;;-2.10;98.50;-1.50;97258.00;;;;5000302;28;20815;-70
2023/03/17 02:27:32;;;;;;;3.07;2.67;;;-2.30;99.20;-1.20;97263.00;;;;4997298;28;20454;-71
2023/03/17 02:30:23;;;;;;;1.97;1.77;;;-2.00;99.40;-1.40;97261.00;;;;5002252;28;20933;-71
2023/03/17 02:33:12;;;;;;;3.23;1.87;;;-1.90;99.60;-1.60;97270.00;;;;4999374;28;20422;-70
2023/03/17 02:36:01;;;;;;;4.10;2.23;;;-1.80;99.90;-1.50;97261.00;;;;4998571;28;20415;-70
2023/03/17 02:38:51;;;;;;;5.60;2.43;;;-2.30;99.90;-1.10;97264.00;;;;5002172;28;20466;-70
2023/03/17 02:41:41;;;;;;;13.43;2.00;;;-2.20;99.90;-1.40;97259.00;;;;4994922;28;20420;-70
2023/03/17 02:44:30;;;;;;;3.17;1.57;;;-2.30;99.90;-1.50;97259.00;;;;5004138;28;20441;-70
2023/03/17 02:47:19;;;;;;;6.87;2.03;;;-2.30;99.90;-1.40;97263.00;;;;4997195;28;20448;-71
2023/03/17 02:50:12;;;;;;;3.77;2.30;;;-2.40;99.90;-1.40;97258.00;;;;4996979;28;20471;-70
2023/03/17 02:53:00;;;;;;;2.00;1.80;;;-2.20;99.90;-1.80;97258.00;;;;5004657;28;21217;-71
2023/03/17 02:55:49;;;;;;;2.30;1.57;;;-2.40;99.90;-1.80;97243.00;;;;4994349;28;20422;-71
2023/03/17 02:58:39;;;;;;;1.60;1.50;;;-2.40;99.90;-1.70;97254.00;;;;4995951;28;20495;-70
2023/03/17 03:01:29;;;;;;;2.13;1.40;;;-2.50;99.90;-1.60;97253.00;;;;5001178;28;21019;-71
2023/03/17 03:04:19;;;;;;;2.07;1.50;;;-2.40;99.90;-1.70;97257.00;;;;5007131;28;20801;-70
2023/03/17 03:07:08;;;;;;;1.17;1.07;;;-2.50;99.90;-1.40;97255.00;;;;4999535;28;20464;-70
2023/03/17 03:09:57;;;;;;;1.80;1.33;;;-1.70;99.90;-1.30;97257.00;;;;4996644;28;20431;-71
2023/03/17 03:12:46;;;;;;;2.43;2.07;;;-1.90;99.90;-1.30;97247.00;;;;4989768;28;20433;-70
2023/03/17 03:15:37;;;;;;;2.73;1.80;;;-2.00;99.10;-1.20;97258.00;;;;4991218;28;20409;-71
2023/03/17 03:18:26;;;;;;;2.90;2.10;;;-2.30;99.90;-1.70;97243.00;;;;4999874;28;20441;-70
2023/03/17 03:21:14;;;;;;;4.10;2.07;;;-2.40;99.90;-1.80;97247.00;;;;4998348;28;20433;-70
2023/03/17 03:24:04;;;;;;;2.63;2.10;;;-1.90;99.90;-2.20;97239.00;;;;4996457;28;20549;-70
2023/03/17 03:26:52;;;;;;;1.80;1.70;;;-2.40;99.90;-2.30;97247.00;;;;4997888;28;20964;-70
2023/03/17 03:29:41;;;;;;;5.60;2.03;;;-2.60;99.90;-1.70;97254.00;;;;5002732;28;21214;-70
2023/03/17 03:32:31;;;;;;;2.47;2.10;;;-2.60;99.90;-1.40;97246.00;;;;4995363;28;20784;-71
2023/03/17 03:35:20;;;;;;;2.47;1.73;;;-2.50;99.90;-1.50;97249.00;;;;4998614;28;20455;-70
2023/03/17 03:38:09;;;;;;;7.40;6.70;;;-2.60;99.90;-1.50;97252.00;;;;4991140;28;20437;-70
2023/03/17 03:40:58;;;;;;;3.13;2.40;;;-2.00;99.90;-1.70;97245.00;;;;4999556;28;20569;-71
2023/03/17 03:43:46;;;;;;;4.60;2.20;;;-2.60;99.90;-1.60;97249.00;;;;4995049;28;20416;-69
2023/03/17 03:46:35;;;;;;;3.00;2.00;;;-2.50;99.90;-1.90;97241.00;;;;4998360;28;20835;-69
2023/03/17 03:49:25;;;;;;;2.77;2.47;;;-2.50;99.90;-1.70;97243.00;;;;4994895;28;20433;-71
2023/03/17 03:52:14;;;;;;;2.17;1.90;;;-2.20;99.90;-2.00;97247.00;;;;4997850;28;20433;-70
2023/03/17 03:55:03;;;;;;;3.63;2.47;;;-2.50;99.90;-2.00;97241.00;;;;5000891;28;20434;-71
2023/03/17 03:57:52;;;;;;;2.10;1.90;;;-2.40;99.90;-1.90;97240.00;;;;5000374;28;20464;-71
2023/03/17 04:00:41;;;;;;;2.20;2.00;;;-2.20;99.90;-2.30;97236.00;;;;4994750;28;20460;-71
2023/03/17 04:03:30;;;;;;;1.50;1.40;;;-2.50;99.90;-2.30;97234.00;;;;5001686;28;20433;-70
2023/03/17 04:06:20;;;;;;;2.27;2.07;;;-2.60;99.90;-1.90;97239.00;;;;4983617;28;20442;-70
2023/03/17 04:09:09;;;;;;;4.17;1.73;;;-2.60;99.90;-1.80;97242.00;;;;5000399;28;20421;-71
2023/03/17 04:11:57;;;;;;;2.77;2.33;;;-2.80;99.90;-1.70;97231.00;;;;4999177;28;20423;-70
2023/03/17 04:14:46;;;;;;;7.03;1.70;;;-2.70;99.90;-1.90;97226.00;;;;4997389;28;20426;-71
2023/03/17 04:17:35;;;;;;;1.70;1.60;;;-2.70;99.90;-2.40;97216.00;;;;4988834;28;20445;-69
2023/03/17 04:20:24;;;;;;;3.77;2.47;;;-2.80;99.90;-2.40;97215.00;;;;4994188;28;20480;-70
2023/03/17 04:23:14;;;;;;;4.67;2.03;;;-2.90;99.90;-2.00;97227.00;;;;4999193;28;20425;-70
2023/03/17 04:26:03;;;;;;;4.47;2.00;;;-2.80;99.90;-2.30;97222.00;;;;4980618;28;20431;-70
2023/03/17 04:28:53;;;;;;;3.17;1.77;;;-2.80;99.90;-2.10;97227.00;;;;5004011;28;20986;-70
2023/03/17 04:31:42;;;;;;;2.23;2.03;;;-3.00;99.90;-1.80;97223.00;;;;4977861;28;20458;-70
2023/03/17 04:34:31;;;;;;;2.40;1.77;;;-2.70;99.90;-1.50;97227.00;;;;4974986;28;20427;-70
2023/03/17 04:37:20;;;;;;;6.23;2.10;;;-2.80;99.90;-1.50;97235.00;;;;4976884;28;20451;-71
2023/03/17 04:40:12;;;;;;;2.63;1.73;;;-2.70;99.90;-1.50;97223.00;;;;4974181;28;20486;-70
2023/03/17 04:43:01;;;;;;;2.63;2.17;;;-2.40;99.90;-1.60;97221.00;;;;4980042;28;20426;-70
2023/03/17 04:45:51;;;;;;;2.00;1.80;;;-2.60;99.90;-2.00;97228.00;;;;4973368;28;20422;-70
2023/03/17 04:48:40;;;;;;;3.63;2.00;;;-2.70;99.90;-2.00;97228.00;;;;4974326;28;20439;-70
2023/03/17 04:51:28;;;;;;;2.00;1.80;;;-2.40;99.90;-2.00;97229.00;;;;4989045;28;20953;-72
2023/03/17 04:54:17;;;;;;;2.40;2.17;;;-2.80;99.90;-1.90;97228.00;;;;4975467;28;20475;-70
2023/03/17 04:57:07;;;;;;;3.83;1.87;;;-2.70;99.90;-2.10;97226.00;;;;4976329;28;20451;-70
2023/03/17 04:59:57;;;;;;;2.57;1.87;;;-2.20;99.90;-2.00;97237.00;;;;4974066;28;20554;-71
2023/03/17 05:02:45;;;;;;;1.30;1.20;;;-2.50;99.90;-2.30;97220.00;;;;4988731;28;20511;-70
2023/03/17 05:05:35;;;;;;;2.40;1.77;;;-2.80;99.90;-2.20;97230.00;;;;4986198;28;20434;-71
2023/03/17 05:08:24;;;;;;;2.30;1.83;;;-3.00;99.90;-1.90;97246.00;;;;4995945;28;20445;-70
2023/03/17 05:11:14;;;;;;;1.30;1.20;;;-2.90;99.90;-2.00;97238.00;;;;4979384;28;20532;-71
2023/03/17 05:14:04;;;;;;;7.43;2.00;;;-2.80;99.90;-2.30;97217.00;;;;4975053;28;20461;-70
2023/03/17 05:16:52;;;;;;;3.37;2.00;;;-2.80;99.90;-2.30;97219.00;;;;4971712;28;20842;-70
2023/03/17 05:19:41;;;;;;;3.07;2.70;;;-2.80;99.90;-2.00;97234.00;;;;4972475;28;20412;-71
2023/03/17 05:22:30;;;;;;;4.83;2.97;;;-2.90;99.90;-2.00;97238.00;;;;4993403;28;20430;-71
2023/03/17 05:25:19;;;;;;;1.53;1.43;;;-3.00;99.90;-2.40;97242.00;;;;4992768;28;20494;-70
2023/03/17 05:28:08;;;;;;;1.67;1.53;;;-3.10;99.90;-2.40;97239.00;;;;4999604;28;20479;-70
2023/03/17 05:30:59;;;;;;;2.77;2.17;;;-3.00;99.90;-2.60;97256.00;;;;4996309;28;20500;-70
2023/03/17 05:33:48;;;;;;;2.47;2.27;;;-3.10;99.90;-2.30;97252.00;;;;4992276;28;20417;-72
2023/03/17 05:36:37;;;;;;;2.07;1.97;;;-3.10;99.90;-2.20;97267.00;;;;4984843;28;20453;-70
2023/03/17 05:39:25;;;;;;;1.97;1.77;;;-2.90;99.90;-2.40;97259.00;;;;4972405;28;20491;-70
2023/03/17 05:42:14;;;;;;;3.43;2.03;;;-3.10;99.90;-2.30;97262.00;;;;4996795;28;20458;-70
2023/03/17 05:45:04;;;;;;;2.00;1.73;;;-2.50;99.90;-2.20;97260.00;;;;4978757;28;20431;-70
2023/03/17 05:47:54;;;;;;;3.27;2.40;;;-2.80;99.90;-2.00;97267.00;;;;4995005;28;20446;-71
2023/03/17 05:50:42;;;;;;;1.83;1.60;;;-2.90;99.90;-1.90;97272.00;;;;4988338;28;20985;-70
2023/03/17 05:53:31;;;;;;;4.93;3.87;;;-2.70;99.90;-1.90;97273.00;;;;4999528;28;20429;-70
2023/03/17 05:56:20;;;;;;;7.13;2.13;;;-2.90;99.90;-1.60;97277.00;;;;4980051;28;20924;-70
2023/03/17 05:59:13;;;;;;;2.50;2.30;;;-2.70;99.90;-1.70;97277.00;;;;4995889;28;20952;-69
2023/03/17 06:02:02;;;;;;;3.20;2.13;;;-2.70;99.90;-1.70;97274.00;;;;4989759;28;20827;-71
2023/03/17 06:04:52;;;;;;;2.80;2.03;;;-2.30;99.90;-1.40;97280.00;;;;4983524;28;20439;-71
2023/03/17 06:07:41;;;;;;;2.03;1.83;;;-1.90;99.90;-1.00;97281.00;;;;4969964;28;20459;-70
2023/03/17 06:10:41;;;;;;;6.87;3.17;;;-2.20;99.90;-1.40;97280.00;;;;4972413;28;20452;-70
2023/03/17 06:13:30;;;;;;;1.80;1.50;;;-2.30;99.90;-2.20;97267.00;;;;4978245;28;20422;-71
2023/03/17 06:16:19;;;;;;;4.17;2.43;;;-2.30;99.90;-1.80;97261.00;;;;4979333;28;20435;-70
2023/03/17 06:19:08;;;;;;;2.10;1.83;;;-2.30;99.90;-1.60;97266.00;;;;4982700;28;20438;-70
2023/03/17 06:21:58;;;;;;;2.90;2.53;;;-2.40;99.90;-1.20;97275.00;;;;4979377;28;20523;-70
2023/03/17 06:24:47;;;;;;;5.77;4.50;;;-2.30;99.90;-1.00;97268.00;;;;4974854;28;20422;-71
2023/03/17 06:27:36;;;;;;;1.47;1.43;;;-2.20;99.90;-1.00;97272.00;;;;4972654;28;20462;-70
2023/03/17 06:30:24;;;;;;;2.47;2.27;;;-1.90;99.90;-0.80;97271.00;;;;4966773;28;20445;-71
2023/03/17 06:33:13;;;;;;;2.53;2.33;;;-2.00;99.90;-0.70;97263.00;;;;4974960;28;20859;-70
2023/03/17 06:36:02;;;;;;;5.53;2.97;;;-1.80;99.90;-0.70;97262.00;;;;4973582;28;20435;-71
2023/03/17 06:38:52;;;;;;;3.97;2.67;;;-1.80;99.90;-0.80;97255.00;;;;4976822;28;20427;-70
2023/03/17 06:41:41;;;;;;;6.30;2.27;;;-1.80;99.90;-0.30;97256.00;;;;4972623;28;20470;-70
2023/03/17 06:44:30;;;;;;;2.17;1.97;;;-1.30;99.90;-0.40;97264.00;;;;4978241;28;20458;-72
2023/03/17 06:47:19;;;;;;;3.43;2.33;;;-1.20;99.90;0.30;97248.00;;;;4967598;28;20485;-71
2023/03/17 06:50:10;;;;;;;2.00;1.80;;;-1.10;99.90;0.40;97262.00;;;;4969601;28;20496;-71
2023/03/17 06:52:58;;;;;;;1.90;1.60;;;-0.60;99.90;0.20;97260.00;;;;4976422;28;20415;-70
2023/03/17 06:55:49;;;;;;;10.43;2.70;;;-0.90;99.90;0.50;97258.00;;;;4979957;28;20426;-71
2023/03/17 06:58:38;;;;;;;2.57;2.13;;;-0.40;99.90;0.70;97263.00;;;;4977538;28;21060;-72
2023/03/17 07:01:27;;;;;;;3.30;2.10;;;0.00;99.90;0.80;97273.00;;;;4978122;28;20481;-70
2023/03/17 07:04:16;;;;;;;3.50;1.93;;;-0.40;99.90;0.70;97266.00;;;;4977584;28;20434;-71
2023/03/17 07:07:05;;;;;;;2.80;2.10;;;-0.10;99.90;1.00;97269.00;;;;4982344;28;20442;-71
2023/03/17 07:09:54;;;;;;;2.50;2.23;;;0.00;99.90;0.90;97262.00;;;;4973531;28;20544;-72
2023/03/17 07:12:44;;;;;;;3.83;2.03;;;-0.20;99.90;1.20;97265.00;;;;4983458;28;20423;-71
2023/03/17 07:15:38;;;;;;;9.07;2.73;;;0.10;99.90;1.60;97262.00;;;;4978198;28;20430;-71
2023/03/17 07:18:26;;;;;;;6.00;4.23;;;0.20;99.90;1.90;97267.00;;;;4971253;28;20466;-71
2023/03/17 07:21:16;;;;;;;2.67;2.30;;;0.30;99.90;1.90;97276.00;;;;4971921;28;20471;-72
2023/03/17 07:24:05;;;;;;;2.97;2.70;;;0.90;99.90;2.00;97276.00;;;;4972727;28;20427;-71
2023/03/17 07:26:53;;;;;;;5.27;2.07;;;0.70;99.90;2.10;97270.00;;;;4977599;28;20447;-71
2023/03/17 07:29:43;;;;;;;7.47;3.43;;;1.10;99.90;2.10;97271.00;;;;4977203;28;20465;-72
2023/03/17 07:32:34;;;;;;;6.50;2.90;;;1.90;99.90;2.50;97276.00;;;;4974317;28;20898;-73
2023/03/17 07:35:22;;;;;;;5.53;3.47;;;0.90;99.90;2.70;97282.00;;;;4982127;28;20457;-72
2023/03/17 07:38:14;;;;;;;5.57;3.10;;;1.20;99.90;2.50;97277.00;;;;4974290;28;20476;-72
2023/03/17 07:41:08;;;;;;;3.43;2.67;;;1.60;99.90;2.80;97282.00;;;;4973700;28;20536;-72
2023/03/17 07:44:00;;;;;;;3.67;3.30;;;1.30;99.90;2.80;97281.00;;;;4975246;28;20472;-73
2023/03/17 07:46:52;;;;;;;3.03;2.50;;;1.80;99.90;2.90;97286.00;;;;4977467;28;20463;-72
2023/03/17 07:49:41;;;;;;;3.17;2.63;;;1.50;99.90;3.10;97283.00;;;;4989081;28;20431;-69
2023/03/17 07:52:30;;;;;;;5.43;3.40;;;2.00;99.90;3.40;97279.00;;;;5001335;28;20530;-70
2023/03/17 07:55:19;;;;;;;4.30;3.07;;;1.80;99.90;3.70;97276.00;;;;4978317;28;20526;-70
2023/03/17 07:58:08;;;;;;;6.50;3.30;;;2.10;99.90;3.60;97273.00;;;;4974412;28;20473;-70
2023/03/17 08:00:57;;;;;;;7.50;4.27;;;2.10;99.80;3.80;97264.00;;;;4981245;28;20431;-70
2023/03/17 08:03:47;;;;;;;3.80;3.07;;;2.20;99.60;3.90;97270.00;;;;4981956;28;20419;-70
2023/03/17 08:06:36;;;;;;;9.73;3.77;;;2.50;99.30;4.00;97278.00;;;;4980980;28;21015;-70
2023/03/17 08:09:25;;;;;;;4.90;2.97;;;2.40;99.60;4.40;97283.00;;;;4977812;28;20521;-70
2023/03/17 08:12:15;;;;;;;4.40;3.10;;;2.80;99.80;4.30;97273.00;;;;4977719;28;20481;-69
2023/03/17 08:15:05;;;;;;;6.40;3.83;;;2.70;99.80;4.10;97269.00;;;;4978643;28;20827;-70
2023/03/17 08:17:54;;;;;;;6.17;3.60;;;2.60;98.70;4.30;97269.00;;;;4999164;28;20462;-70
2023/03/17 08:20:44;;;;;;;7.13;3.13;;;2.80;98.40;4.40;97261.00;;;;4987036;28;20453;-70
2023/03/17 08:23:33;;;;;;;3.93;2.80;;;3.00;98.20;4.80;97263.00;;;;4992419;28;20473;-70
2023/03/17 08:26:22;;;;;;;4.13;2.90;;;3.20;97.80;5.20;97252.00;;;;4985284;28;20441;-70
2023/03/17 08:29:11;;;;;;;4.53;3.63;;;3.20;97.70;5.60;97246.00;;;;4999624;28;21084;-70
2023/03/17 08:31:59;;;;;;;5.37;2.77;;;3.50;97.30;6.00;97262.00;;;;4985073;28;21047;-70
2023/03/17 08:34:48;;;;;;;5.10;3.17;;;3.80;97.40;6.10;97258.00;;;;4979574;28;20422;-70
2023/03/17 08:37:38;;;;;;;7.30;3.17;;;4.40;96.00;6.20;97243.00;;;;4978132;28;20968;-71
2023/03/17 08:40:27;;;;;;;4.47;2.83;;;4.50;95.70;6.60;97253.00;;;;4975574;28;20432;-70
2023/03/17 08:43:17;;;;;;;7.50;2.97;;;4.40;95.40;6.90;97245.00;;;;4973832;28;20463;-71
2023/03/17 08:46:10;;;;;;;5.20;2.83;;;4.80;94.70;7.20;97249.00;;;;4980167;28;20444;-71
2023/03/17 08:48:59;;;;;;;6.70;3.07;;;4.90;94.00;7.40;97248.00;;;;4996108;28;20192;-70
2023/03/17 08:51:48;;;;;;;3.90;2.47;;;5.20;93.70;7.50;97241.00;;;;4992045;28;20207;-69
2023/03/17 08:54:38;;;;;;;6.43;3.27;;;5.60;93.10;7.70;97256.00;;;;4988233;28;20195;-70
2023/03/17 08:57:28;;;;;;;4.80;3.23;;;5.70;91.90;8.10;97256.00;;;;4980972;28;20226;-70
2023/03/17 09:00:20;;;;;;;3.77;2.57;;;6.20;91.30;7.50;97248.00;;;;4985724;28;20716;-70
2023/03/17 09:03:09;;;;;;;6.33;3.20;;;5.90;89.30;8.40;97246.00;;;;4996727;28;20226;-70
2023/03/17 09:05:58;;;;;;;6.33;3.40;;;6.10;90.10;8.70;97269.00;;;;4973987;28;20204;-70
2023/03/17 09:08:49;;;;;;;8.33;4.37;;;6.50;90.00;8.80;97256.00;;;;4972157;28;20200;-70
2023/03/17 09:11:39;;;;;;;4.93;3.87;;;6.70;87.70;9.00;97260.00;;;;4989185;28;20206;-70
2023/03/17 09:14:28;;;;;;;3.80;3.03;;;6.90;86.50;9.40;97265.00;;;;4978533;28;20216;-70
2023/03/17 09:17:24;;;;;;;3.27;2.90;;;7.20;86.10;9.60;97268.00;;;;4988504;28;20230;-70
2023/03/17 09:20:13;;;;;;;8.60;4.67;;;7.30;84.80;9.50;97260.00;;;;4994379;28;20227;-70
2023/03/17 09:23:07;;;;;;;10.20;4.20;;;7.40;84.20;9.80;97256.00;;;;5021557;28;20230;-70
2023/03/17 09:25:56;;;;;;;8.77;3.93;;;7.70;83.50;9.80;97267.00;;;;5020412;28;20207;-70
2023/03/17 09:28:46;;;;;;;4.20;3.80;;;7.90;82.40;10.10;97261.00;;;;4998393;28;20215;-70
2023/03/17 09:31:36;;;;;;;5.60;3.07;;;8.10;82.20;9.80;97255.00;;;;4988994;28;20213;-70
2023/03/17 09:34:25;;;;;;;4.60;3.07;;;8.10;80.00;10.00;97254.00;;;;4995026;28;20199;-71
2023/03/17 09:37:13;;;;;;;5.53;4.20;;;8.20;77.80;10.40;97245.00;;;;4986992;28;20225;-71
2023/03/17 09:40:06;;;;;;;5.80;4.37;;;8.40;78.50;10.80;97244.00;;;;4980398;28;20196;-71
2023/03/17 09:43:06;;;;;;;9.73;3.70;;;8.60;78.20;10.50;97244.00;;;;4990066;28;20231;-72
2023/03/17 09:45:57;;;;;;;7.40;4.27;;;8.70;76.30;10.70;97233.00;;;;4981945;28;20737;-71
2023/03/17 09:48:58;;;;;;;4.27;3.30;;;8.80;75.30;10.50;97237.00;;;;4990726;28;20260;-72
2023/03/17 09:51:48;;;;;;;4.67;3.30;;;8.80;73.90;10.60;97228.00;;;;5000745;28;20296;-70
2023/03/17 09:54:37;;;;;;;3.37;2.70;;;9.20;74.00;10.80;97222.00;;;;5029711;28;20199;-70
2023/03/17 09:57:30;;;;;;;7.73;3.83;;;9.10;72.00;11.00;97222.00;;;;5021218;28;20248;-71
2023/03/17 10:00:25;;;;;;;6.73;3.07;;;9.40;71.70;11.50;97222.00;;;;4981342;28;20277;-71
2023/03/17 10:03:16;;;;;;;4.60;3.33;;;9.40;71.90;11.60;97220.00;;;;4993432;28;20232;-70
2023/03/17 10:06:24;;;;;;;7.63;3.47;;;9.60;71.90;11.60;97215.00;;;;4997266;28;20210;-70
2023/03/17 10:09:25;;;;;;;4.63;3.37;;;9.80;70.60;12.50;97214.00;;;;4998794;28;20202;-71
2023/03/17 10:12:24;;;;;;;6.63;3.97;;;10.00;69.50;12.50;97209.00;;;;4996305;28;20677;-71
2023/03/17 10:15:18;;;;;;;4.20;3.47;;;10.30;68.50;12.60;97215.00;;;;5000126;28;20251;-70
2023/03/17 10:18:13;;;;;;;5.80;3.27;;;10.60;68.70;13.00;97222.00;;;;5004056;28;20237;-69
2023/03/17 10:21:06;;;;;;;5.90;4.07;;;10.80;66.80;11.60;97215.00;;;;4994701;28;20209;-71
2023/03/17 10:23:58;;;;;;;3.27;2.80;;;10.90;63.50;11.60;97211.00;;;;4980570;28;20697;-71
2023/03/17 10:26:50;;;;;;;4.63;3.70;;;10.50;65.10;12.30;97218.00;;;;5038377;28;20215;-70
2023/03/17 10:29:39;;;;;;;4.47;3.47;;;10.40;64.80;12.50;97211.00;;;;5018974;28;20261;-71
2023/03/17 10:32:31;;;;;;;5.37;2.97;;;10.60;63.80;12.30;97213.00;;;;5006828;28;20639;-68
2023/03/17 10:35:21;;;;;;;8.03;3.70;;;10.60;63.70;13.20;97213.00;;;;5022574;28;20242;-69
2023/03/17 10:38:20;;;;;;;8.50;3.90;;;10.90;63.00;13.20;97202.00;;;;4999794;28;20227;-71
2023/03/17 10:41:13;;;;;;;3.53;2.90;;;11.20;61.20;13.60;97195.00;;;;5026181;28;20230;-71
2023/03/17 10:44:03;;;;;;;3.97;3.40;;;11.40;61.30;14.70;97195.00;;;;5023723;28;20223;-70
2023/03/17 10:46:54;;;;;;;6.80;3.00;;;11.80;62.50;14.80;97194.00;;;;5007889;28;20215;-70
2023/03/17 10:49:45;;;;;;;5.50;3.27;;;12.00;59.80;13.70;97198.00;;;;5026663;28;20265;-69
2023/03/17 10:52:39;;;;;;;5.80;4.03;;;12.20;59.30;14.70;97188.00;;;;5025430;28;20666;-70
2023/03/17 10:55:34;;;;;;;10.07;4.00;;;12.30;58.80;15.30;97194.00;;;;5020501;28;20215;-69
2023/03/17 10:58:37;;;;;;;6.73;3.30;;;12.50;58.90;15.40;97203.00;;;;5009778;28;20268;-70
2023/03/17 11:01:30;;;;;;;5.60;3.40;;;13.10;58.30;15.40;97202.00;;;;5004785;28;20203;-71
2023/03/17 11:04:30;;;;;;;4.60;3.33;;;13.20;56.50;14.40;97185.00;;;;5014679;28;20219;-70
2023/03/17 11:07:21;;;;;;;4.07;3.53;;;13.20;55.90;15.10;97185.00;;;;4991653;28;20222;-73
2023/03/17 11:10:19;;;;;;;4.10;3.70;;;13.40;55.10;14.30;97174.00;;;;4987138;28;20221;-72
2023/03/17 11:13:10;;;;;;;9.53;4.20;;;13.20;55.10;14.80;97183.00;;;;4983036;28;20203;-71
2023/03/17 11:16:10;;;;;;;6.20;3.97;;;13.40;55.40;12.70;97158.00;;;;4976601;28;20200;-74
2023/03/17 11:19:01;;;;;;;6.43;3.80;;;12.90;53.70;14.00;97172.00;;;;4984989;28;20202;-69
2023/03/17 11:22:03;;;;;;;4.53;3.80;;;12.80;54.40;15.50;97164.00;;;;4973264;28;20226;-70
2023/03/17 11:25:01;;;;;;;5.93;4.87;;;13.40;55.40;15.50;97168.00;;;;4976752;28;20225;-70
2023/03/17 11:27:59;;;;;;;9.00;4.13;;;13.40;54.20;15.30;97170.00;;;;4975066;28;20313;-71
2023/03/17 11:30:59;;;;;;;5.87;4.07;;;13.60;54.10;15.60;97167.00;;;;4974804;28;20204;-71
2023/03/17 11:33:58;;;;;;;6.00;4.23;;;13.70;53.80;15.10;97160.00;;;;4978920;28;20211;-73
2023/03/17 11:36:57;;;;;;;6.77;4.07;;;13.80;53.00;15.90;97149.00;;;;4972679;28;20211;-73
2023/03/17 11:39:55;;;;;;;3.70;3.40;;;14.10;53.10;15.50;97145.00;;;;4970827;28;20682;-70
2023/03/17 11:42:53;;;;;;;3.97;3.57;;;14.10;52.50;15.90;97137.00;;;;4979846;28;20289;-70
2023/03/17 11:45:51;;;;;;;4.70;3.07;;;14.10;52.10;16.50;97140.00;;;;4973285;28;20203;-71
2023/03/17 11:48:51;;;;;;;7.97;3.60;;;14.60;53.40;15.20;97125.00;;;;4979447;28;20597;-72
2023/03/17 11:51:58;;;;;;;6.87;4.53;;;14.50;52.90;17.10;97131.00;;;;4972542;28;20214;-72
2023/03/17 11:54:52;;;;;;;4.70;3.37;;;14.50;53.40;15.60;97113.00;;;;4985468;28;20552;-72
2023/03/17 11:57:50;;;;;;;6.07;3.33;;;14.80;52.00;16.90;97113.00;;;;4969269;28;20219;-68
2023/03/17 12:00:44;;;;;;;8.03;4.07;;;14.80;53.00;16.90;97119.00;;;;4984394;28;20960;-70
2023/03/17 12:03:42;;;;;;;5.63;3.63;;;15.00;55.60;17.70;97121.00;;;;4969668;28;20257;-72
2023/03/17 12:06:35;;;;;;;4.17;3.53;;;15.40;59.70;17.80;97120.00;;;;4972548;28;20857;-72
2023/03/17 12:09:30;;;;;;;5.53;4.40;;;15.50;59.70;16.40;97106.00;;;;4980912;28;20195;-73
2023/03/17 12:12:29;;;;;;;4.90;3.30;;;15.70;57.80;18.20;97110.00;;;;4977880;28;20206;-72
2023/03/17 12:15:28;;;;;;;3.53;3.20;;;15.60;58.70;17.70;97096.00;;;;4978219;28;20283;-73
2023/03/17 12:18:21;;;;;;;4.20;3.43;;;16.40;56.60;15.10;97076.00;;;;4971179;28;20215;-74
2023/03/17 12:21:22;;;;;;;6.50;3.77;;;15.40;45.30;16.60;97081.00;;;;4977927;28;20200;-72
2023/03/17 12:24:17;;;;;;;5.27;3.70;;;15.30;46.20;18.20;97084.00;;;;4978726;28;20230;-70
2023/03/17 12:27:14;;;;;;;4.47;3.50;;;15.80;46.70;17.70;97081.00;;;;4977157;28;20231;-72
2023/03/17 12:30:14;;;;;;;7.93;4.67;;;16.10;46.10;18.10;97074.00;;;;4969323;28;20199;-70
2023/03/17 12:33:15;;;;;;;4.93;3.90;;;16.50;46.60;18.20;97062.00;;;;4977518;28;20272;-70
2023/03/17 12:36:08;;;;;;;6.73;4.13;;;16.40;49.80;17.70;97065.00;;;;4976291;28;20575;-70
2023/03/17 12:39:04;;;;;;;8.67;4.60;;;16.70;54.10;17.40;97069.00;;;;4978957;28;20209;-74
2023/03/17 12:42:15;;;;;;;7.47;4.13;;;16.70;43.90;17.60;97058.00;;;;4983585;28;20217;-72
2023/03/17 12:45:53;;;;;;;4.70;4.20;;;16.50;44.20;18.90;97056.00;;;;4972271;28;20226;-72